sensor_id;sensor_type;location;lat;lon;timestamp;pressure;altitude;pressure_sealevel;temperature;humidity
5966;BME280;3009;43.224;27.976;2024-01-27T00:01:48;100877.41;;;2.70;100.00
5966;BME280;3009;43.224;27.976;2024-01-27T00:04:16;100880.25;;;2.63;100.00
5966;BME280;3009;43.224;27.976;2024-01-27T00:06:44;100888.81;;;2.53;100.00
5966;BME280;3009;43.224;27.976;2024-01-27T00:09:15;100887.78;;;2.54;100.00
5966;BME280;3009;43.224;27.976;2024-01-27T00:11:43;100871.56;;;2.34;100.00
5966;BME280;3009;43.224;27.976;2024-01-27T00:14:12;100881.19;;;2.40;100.00
5966;BME280;3009;43.224;27.976;2024-01-27T00:16:40;100882.97;;;2.34;100.00
5966;BME280;3009;43.224;27.976;2024-01-27T00:19:09;100871.03;;;2.15;100.00
5966;BME280;3009;43.224;27.976;2024-01-27T00:21:38;100881.13;;;2.18;100.00
5966;BME280;3009;43.224;27.976;2024-01-27T00:24:06;100869.88;;;2.10;100.00
5966;BME280;3009;43.224;27.976;2024-01-27T00:26:36;100877.63;;;2.00;100.00
5966;BME280;3009;43.224;27.976;2024-01-27T00:29:05;100884.88;;;2.05;100.00
5966;BME280;3009;43.224;27.976;2024-01-27T00:31:33;100892.09;;;2.09;100.00
5966;BME280;3009;43.224;27.976;2024-01-27T00:34:01;100886.38;;;2.01;100.00
5966;BME280;3009;43.224;27.976;2024-01-27T00:36:30;100887.00;;;1.91;100.00
5966;BME280;3009;43.224;27.976;2024-01-27T00:38:59;100887.25;;;1.89;100.00
5966;BME280;3009;43.224;27.976;2024-01-27T00:41:27;100889.38;;;1.75;100.00
5966;BME280;3009;43.224;27.976;2024-01-27T00:43:57;100888.28;;;1.59;100.00
5966;BME280;3009;43.224;27.976;2024-01-27T00:46:25;100888.63;;;1.63;100.00
5966;BME280;3009;43.224;27.976;2024-01-27T00:48:54;100887.94;;;1.56;100.00
5966;BME280;3009;43.224;27.976;2024-01-27T00:51:23;100892.19;;;1.57;100.00
5966;BME280;3009;43.224;27.976;2024-01-27T00:53:51;100886.47;;;1.48;100.00
5966;BME280;3009;43.224;27.976;2024-01-27T00:56:20;100879.72;;;1.40;100.00
5966;BME280;3009;43.224;27.976;2024-01-27T00:58:48;100887.88;;;1.39;100.00
5966;BME280;3009;43.224;27.976;2024-01-27T01:01:18;100891.81;;;1.24;100.00
5966;BME280;3009;43.224;27.976;2024-01-27T01:03:46;100898.25;;;1.29;100.00
5966;BME280;3009;43.224;27.976;2024-01-27T01:06:15;100883.66;;;1.26;100.00
5966;BME280;3009;43.224;27.976;2024-01-27T01:08:44;100885.28;;;1.15;100.00
5966;BME280;3009;43.224;27.976;2024-01-27T01:11:12;100893.22;;;1.15;100.00
5966;BME280;3009;43.224;27.976;2024-01-27T01:13:41;100891.72;;;1.19;100.00
5966;BME280;3009;43.224;27.976;2024-01-27T01:16:10;100887.00;;;1.21;100.00
5966;BME280;3009;43.224;27.976;2024-01-27T01:18:40;100888.16;;;1.26;100.00
5966;BME280;3009;43.224;27.976;2024-01-27T01:21:08;100882.41;;;1.17;100.00
5966;BME280;3009;43.224;27.976;2024-01-27T01:23:37;100883.09;;;1.12;100.00
5966;BME280;3009;43.224;27.976;2024-01-27T01:26:05;100888.25;;;1.19;100.00
5966;BME280;3009;43.224;27.976;2024-01-27T01:28:33;100875.72;;;1.26;100.00
5966;BME280;3009;43.224;27.976;2024-01-27T01:31:02;100873.88;;;1.27;100.00
5966;BME280;3009;43.224;27.976;2024-01-27T01:33:30;100858.16;;;1.20;100.00
5966;BME280;3009;43.224;27.976;2024-01-27T01:36:00;100860.81;;;1.08;100.00
5966;BME280;3009;43.224;27.976;2024-01-27T01:38:29;100856.09;;;1.10;100.00
5966;BME280;3009;43.224;27.976;2024-01-27T01:40:57;100855.78;;;1.06;100.00
5966;BME280;3009;43.224;27.976;2024-01-27T01:43:26;100850.19;;;1.03;100.00
5966;BME280;3009;43.224;27.976;2024-01-27T01:45:54;100851.19;;;1.02;100.00
5966;BME280;3009;43.224;27.976;2024-01-27T01:48:24;100849.03;;;0.99;100.00
5966;BME280;3009;43.224;27.976;2024-01-27T01:50:53;100850.19;;;0.91;100.00
5966;BME280;3009;43.224;27.976;2024-01-27T01:53:23;100842.38;;;0.84;100.00
5966;BME280;3009;43.224;27.976;2024-01-27T01:55:52;100848.72;;;0.72;100.00
5966;BME280;3009;43.224;27.976;2024-01-27T01:58:21;100847.22;;;0.64;100.00
5966;BME280;3009;43.224;27.976;2024-01-27T02:00:49;100857.41;;;0.72;100.00
5966;BME280;3009;43.224;27.976;2024-01-27T02:03:18;100847.31;;;0.69;100.00
5966;BME280;3009;43.224;27.976;2024-01-27T02:05:46;100838.94;;;0.72;100.00
5966;BME280;3009;43.224;27.976;2024-01-27T02:08:15;100845.69;;;0.68;100.00
5966;BME280;3009;43.224;27.976;2024-01-27T02:10:45;100845.28;;;0.71;100.00
5966;BME280;3009;43.224;27.976;2024-01-27T02:13:17;100844.81;;;0.74;100.00
5966;BME280;3009;43.224;27.976;2024-01-27T02:15:47;100840.09;;;0.52;100.00
5966;BME280;3009;43.224;27.976;2024-01-27T02:18:16;100836.19;;;0.55;100.00
5966;BME280;3009;43.224;27.976;2024-01-27T02:20:45;100833.78;;;0.53;100.00
5966;BME280;3009;43.224;27.976;2024-01-27T02:23:14;100828.75;;;0.64;100.00
5966;BME280;3009;43.224;27.976;2024-01-27T02:25:44;100836.06;;;0.62;100.00
5966;BME280;3009;43.224;27.976;2024-01-27T02:28:12;100841.13;;;0.63;100.00
5966;BME280;3009;43.224;27.976;2024-01-27T02:30:40;100839.84;;;0.54;100.00
5966;BME280;3009;43.224;27.976;2024-01-27T02:33:09;100830.13;;;0.55;100.00
5966;BME280;3009;43.224;27.976;2024-01-27T02:35:38;100829.28;;;0.42;100.00
5966;BME280;3009;43.224;27.976;2024-01-27T02:38:06;100824.16;;;0.47;100.00
5966;BME280;3009;43.224;27.976;2024-01-27T02:40:35;100822.19;;;0.43;100.00
5966;BME280;3009;43.224;27.976;2024-01-27T02:43:05;100818.66;;;0.49;100.00
5966;BME280;3009;43.224;27.976;2024-01-27T02:45:34;100819.34;;;0.44;100.00
5966;BME280;3009;43.224;27.976;2024-01-27T02:48:03;100813.25;;;0.56;100.00
5966;BME280;3009;43.224;27.976;2024-01-27T02:50:32;100816.13;;;0.54;100.00
5966;BME280;3009;43.224;27.976;2024-01-27T02:53:01;100806.16;;;0.56;100.00
5966;BME280;3009;43.224;27.976;2024-01-27T02:55:29;100809.59;;;0.57;100.00
5966;BME280;3009;43.224;27.976;2024-01-27T02:57:57;100804.66;;;0.48;100.00
5966;BME280;3009;43.224;27.976;2024-01-27T03:00:27;100798.69;;;0.53;100.00
5966;BME280;3009;43.224;27.976;2024-01-27T03:02:56;100801.09;;;0.55;100.00
5966;BME280;3009;43.224;27.976;2024-01-27T03:05:26;100803.59;;;0.49;100.00
5966;BME280;3009;43.224;27.976;2024-01-27T03:07:54;100800.50;;;0.52;100.00
5966;BME280;3009;43.224;27.976;2024-01-27T03:10:22;100791.56;;;0.53;100.00
5966;BME280;3009;43.224;27.976;2024-01-27T03:12:51;100792.97;;;0.44;100.00
5966;BME280;3009;43.224;27.976;2024-01-27T03:15:19;100793.97;;;0.55;100.00
5966;BME280;3009;43.224;27.976;2024-01-27T03:17:49;100802.00;;;0.72;100.00
5966;BME280;3009;43.224;27.976;2024-01-27T03:20:18;100794.84;;;0.84;100.00
5966;BME280;3009;43.224;27.976;2024-01-27T03:22:46;100787.84;;;0.90;100.00
5966;BME280;3009;43.224;27.976;2024-01-27T03:25:15;100798.75;;;0.94;100.00
5966;BME280;3009;43.224;27.976;2024-01-27T03:27:43;100795.19;;;1.00;100.00
5966;BME280;3009;43.224;27.976;2024-01-27T03:30:12;100797.59;;;1.01;100.00
5966;BME280;3009;43.224;27.976;2024-01-27T03:32:41;100797.13;;;1.04;100.00
5966;BME280;3009;43.224;27.976;2024-01-27T03:35:10;100795.84;;;1.07;100.00
5966;BME280;3009;43.224;27.976;2024-01-27T03:37:39;100786.88;;;1.08;100.00
5966;BME280;3009;43.224;27.976;2024-01-27T03:40:08;100778.97;;;1.08;100.00
5966;BME280;3009;43.224;27.976;2024-01-27T03:42:37;100790.00;;;1.05;100.00
5966;BME280;3009;43.224;27.976;2024-01-27T03:45:06;100789.44;;;1.03;100.00
5966;BME280;3009;43.224;27.976;2024-01-27T03:47:34;100788.63;;;1.02;100.00
5966;BME280;3009;43.224;27.976;2024-01-27T03:50:03;100793.91;;;1.02;100.00
5966;BME280;3009;43.224;27.976;2024-01-27T03:52:34;100784.72;;;1.05;100.00
5966;BME280;3009;43.224;27.976;2024-01-27T03:55:03;100781.84;;;1.06;100.00
5966;BME280;3009;43.224;27.976;2024-01-27T03:57:32;100794.72;;;1.03;100.00
5966;BME280;3009;43.224;27.976;2024-01-27T04:00:00;100789.09;;;0.99;100.00
5966;BME280;3009;43.224;27.976;2024-01-27T04:02:32;100794.81;;;1.08;100.00
5966;BME280;3009;43.224;27.976;2024-01-27T04:05:00;100785.94;;;1.14;100.00
5966;BME280;3009;43.224;27.976;2024-01-27T04:07:29;100783.81;;;1.28;100.00
5966;BME280;3009;43.224;27.976;2024-01-27T04:09:59;100783.75;;;1.23;100.00
5966;BME280;3009;43.224;27.976;2024-01-27T04:12:27;100791.81;;;1.16;100.00
5966;BME280;3009;43.224;27.976;2024-01-27T04:14:57;100781.38;;;1.10;100.00
5966;BME280;3009;43.224;27.976;2024-01-27T04:17:27;100784.34;;;1.13;100.00
5966;BME280;3009;43.224;27.976;2024-01-27T04:19:55;100787.09;;;1.18;100.00
5966;BME280;3009;43.224;27.976;2024-01-27T04:22:23;100789.72;;;1.18;100.00
5966;BME280;3009;43.224;27.976;2024-01-27T04:24:52;100796.72;;;1.24;100.00
5966;BME280;3009;43.224;27.976;2024-01-27T04:27:22;100806.13;;;1.20;100.00
5966;BME280;3009;43.224;27.976;2024-01-27T04:29:50;100808.69;;;1.15;100.00
5966;BME280;3009;43.224;27.976;2024-01-27T04:32:19;100810.31;;;1.16;100.00
5966;BME280;3009;43.224;27.976;2024-01-27T04:34:48;100811.19;;;1.22;100.00
5966;BME280;3009;43.224;27.976;2024-01-27T04:37:16;100815.13;;;1.19;100.00
5966;BME280;3009;43.224;27.976;2024-01-27T04:39:45;100816.69;;;1.20;100.00
5966;BME280;3009;43.224;27.976;2024-01-27T04:42:13;100791.75;;;1.28;100.00
5966;BME280;3009;43.224;27.976;2024-01-27T04:44:45;100783.66;;;1.18;100.00
5966;BME280;3009;43.224;27.976;2024-01-27T04:47:13;100804.88;;;1.23;100.00
5966;BME280;3009;43.224;27.976;2024-01-27T04:49:42;100809.13;;;1.24;100.00
5966;BME280;3009;43.224;27.976;2024-01-27T04:52:11;100799.69;;;1.28;100.00
5966;BME280;3009;43.224;27.976;2024-01-27T04:54:40;100791.63;;;1.35;100.00
5966;BME280;3009;43.224;27.976;2024-01-27T04:57:08;100790.34;;;1.37;100.00
5966;BME280;3009;43.224;27.976;2024-01-27T04:59:37;100789.31;;;1.38;100.00
5966;BME280;3009;43.224;27.976;2024-01-27T05:02:06;100785.06;;;1.37;100.00
5966;BME280;3009;43.224;27.976;2024-01-27T05:04:37;100766.22;;;1.34;100.00
5966;BME280;3009;43.224;27.976;2024-01-27T05:07:05;100767.50;;;1.31;100.00
5966;BME280;3009;43.224;27.976;2024-01-27T05:09:34;100769.53;;;1.41;100.00
5966;BME280;3009;43.224;27.976;2024-01-27T05:12:03;100764.81;;;1.43;100.00
5966;BME280;3009;43.224;27.976;2024-01-27T05:14:32;100766.34;;;1.39;100.00
5966;BME280;3009;43.224;27.976;2024-01-27T05:17:00;100759.44;;;1.38;100.00
5966;BME280;3009;43.224;27.976;2024-01-27T05:19:30;100769.19;;;1.37;100.00
5966;BME280;3009;43.224;27.976;2024-01-27T05:21:59;100768.88;;;1.34;100.00
5966;BME280;3009;43.224;27.976;2024-01-27T05:24:27;100758.03;;;1.47;100.00
5966;BME280;3009;43.224;27.976;2024-01-27T05:26:55;100765.66;;;1.61;100.00
5966;BME280;3009;43.224;27.976;2024-01-27T05:29:24;100762.84;;;1.50;100.00
5966;BME280;3009;43.224;27.976;2024-01-27T05:31:52;100758.03;;;1.47;100.00
5966;BME280;3009;43.224;27.976;2024-01-27T05:34:21;100759.22;;;1.56;100.00
5966;BME280;3009;43.224;27.976;2024-01-27T05:36:51;100757.91;;;1.71;100.00
5966;BME280;3009;43.224;27.976;2024-01-27T05:39:19;100756.94;;;1.77;100.00
5966;BME280;3009;43.224;27.976;2024-01-27T05:41:48;100764.94;;;1.82;100.00
5966;BME280;3009;43.224;27.976;2024-01-27T05:44:16;100753.47;;;1.76;100.00
5966;BME280;3009;43.224;27.976;2024-01-27T05:46:44;100759.25;;;1.73;100.00
5966;BME280;3009;43.224;27.976;2024-01-27T05:49:13;100754.19;;;1.72;100.00
5966;BME280;3009;43.224;27.976;2024-01-27T05:51:42;100756.06;;;1.88;100.00
5966;BME280;3009;43.224;27.976;2024-01-27T05:54:12;100756.16;;;1.93;100.00
5966;BME280;3009;43.224;27.976;2024-01-27T05:56:43;100750.13;;;1.98;100.00
5966;BME280;3009;43.224;27.976;2024-01-27T05:59:12;100750.28;;;1.91;100.00
5966;BME280;3009;43.224;27.976;2024-01-27T06:01:40;100747.81;;;2.02;100.00
5966;BME280;3009;43.224;27.976;2024-01-27T06:04:10;100758.47;;;1.90;100.00
5966;BME280;3009;43.224;27.976;2024-01-27T06:06:39;100752.31;;;1.84;100.00
5966;BME280;3009;43.224;27.976;2024-01-27T06:09:08;100755.81;;;1.73;100.00
5966;BME280;3009;43.224;27.976;2024-01-27T06:11:40;100749.25;;;1.75;100.00
5966;BME280;3009;43.224;27.976;2024-01-27T06:14:08;100761.28;;;1.83;100.00
5966;BME280;3009;43.224;27.976;2024-01-27T06:16:36;100749.72;;;1.89;100.00
5966;BME280;3009;43.224;27.976;2024-01-27T06:19:05;100734.56;;;2.02;100.00
5966;BME280;3009;43.224;27.976;2024-01-27T06:21:34;100737.06;;;2.25;100.00
5966;BME280;3009;43.224;27.976;2024-01-27T06:24:02;100729.13;;;2.25;100.00
5966;BME280;3009;43.224;27.976;2024-01-27T06:26:31;100732.53;;;2.26;100.00
5966;BME280;3009;43.224;27.976;2024-01-27T06:29:00;100724.78;;;2.19;100.00
5966;BME280;3009;43.224;27.976;2024-01-27T06:31:29;100725.53;;;2.15;100.00
5966;BME280;3009;43.224;27.976;2024-01-27T06:33:57;100727.69;;;2.18;100.00
5966;BME280;3009;43.224;27.976;2024-01-27T06:36:26;100716.84;;;2.19;100.00
5966;BME280;3009;43.224;27.976;2024-01-27T06:38:54;100731.81;;;2.30;100.00
5966;BME280;3009;43.224;27.976;2024-01-27T06:41:23;100729.50;;;2.34;100.00
5966;BME280;3009;43.224;27.976;2024-01-27T06:43:51;100737.81;;;2.43;100.00
5966;BME280;3009;43.224;27.976;2024-01-27T06:46:22;100727.00;;;2.66;100.00
5966;BME280;3009;43.224;27.976;2024-01-27T06:48:51;100725.59;;;2.81;100.00
5966;BME280;3009;43.224;27.976;2024-01-27T06:51:19;100719.34;;;2.92;100.00
5966;BME280;3009;43.224;27.976;2024-01-27T06:53:48;100722.84;;;2.98;100.00
5966;BME280;3009;43.224;27.976;2024-01-27T06:56:16;100711.03;;;3.06;100.00
5966;BME280;3009;43.224;27.976;2024-01-27T06:58:45;100711.88;;;3.11;100.00
5966;BME280;3009;43.224;27.976;2024-01-27T07:01:13;100714.78;;;3.37;100.00
5966;BME280;3009;43.224;27.976;2024-01-27T07:03:43;100718.66;;;3.57;100.00
5966;BME280;3009;43.224;27.976;2024-01-27T07:06:12;100718.97;;;3.65;100.00
5966;BME280;3009;43.224;27.976;2024-01-27T07:08:40;100719.47;;;3.95;100.00
5966;BME280;3009;43.224;27.976;2024-01-27T07:11:09;100712.72;;;4.14;100.00
5966;BME280;3009;43.224;27.976;2024-01-27T07:13:37;100715.69;;;4.23;100.00
5966;BME280;3009;43.224;27.976;2024-01-27T07:16:06;100713.94;;;4.44;100.00
5966;BME280;3009;43.224;27.976;2024-01-27T07:18:34;100723.63;;;4.76;100.00
5966;BME280;3009;43.224;27.976;2024-01-27T07:21:05;100721.53;;;4.88;100.00
5966;BME280;3009;43.224;27.976;2024-01-27T07:23:35;100722.81;;;4.75;100.00
5966;BME280;3009;43.224;27.976;2024-01-27T07:26:03;100721.75;;;4.71;100.00
5966;BME280;3009;43.224;27.976;2024-01-27T07:28:32;100725.31;;;5.08;100.00
5966;BME280;3009;43.224;27.976;2024-01-27T07:31:01;100725.81;;;4.94;100.00
5966;BME280;3009;43.224;27.976;2024-01-27T07:33:30;100723.94;;;4.90;100.00
5966;BME280;3009;43.224;27.976;2024-01-27T07:35:58;100727.94;;;4.97;100.00
5966;BME280;3009;43.224;27.976;2024-01-27T07:38:28;100726.28;;;4.81;100.00
5966;BME280;3009;43.224;27.976;2024-01-27T07:40:57;100711.66;;;4.78;100.00
5966;BME280;3009;43.224;27.976;2024-01-27T07:43:26;100720.88;;;4.50;100.00
5966;BME280;3009;43.224;27.976;2024-01-27T07:45:54;100716.09;;;4.57;100.00
5966;BME280;3009;43.224;27.976;2024-01-27T07:48:22;100719.88;;;4.67;100.00
5966;BME280;3009;43.224;27.976;2024-01-27T07:50:51;100722.44;;;4.51;100.00
5966;BME280;3009;43.224;27.976;2024-01-27T07:53:20;100718.03;;;4.72;100.00
5966;BME280;3009;43.224;27.976;2024-01-27T07:55:49;100716.72;;;4.70;100.00
5966;BME280;3009;43.224;27.976;2024-01-27T07:58:20;100729.53;;;4.93;100.00
5966;BME280;3009;43.224;27.976;2024-01-27T08:00:49;100719.63;;;4.68;100.00
5966;BME280;3009;43.224;27.976;2024-01-27T08:03:17;100712.44;;;4.64;100.00
5966;BME280;3009;43.224;27.976;2024-01-27T08:05:46;100717.22;;;4.72;100.00
5966;BME280;3009;43.224;27.976;2024-01-27T08:08:15;100713.84;;;4.92;100.00
5966;BME280;3009;43.224;27.976;2024-01-27T08:10:44;100711.50;;;5.16;98.80
5966;BME280;3009;43.224;27.976;2024-01-27T08:13:14;100713.06;;;4.91;99.59
5966;BME280;3009;43.224;27.976;2024-01-27T08:15:42;100710.66;;;4.95;100.00
5966;BME280;3009;43.224;27.976;2024-01-27T08:18:11;100712.06;;;5.18;100.00
5966;BME280;3009;43.224;27.976;2024-01-27T08:20:39;100708.09;;;5.36;100.00
5966;BME280;3009;43.224;27.976;2024-01-27T08:23:08;100708.06;;;5.31;100.00
5966;BME280;3009;43.224;27.976;2024-01-27T08:25:36;100704.09;;;5.18;100.00
5966;BME280;3009;43.224;27.976;2024-01-27T08:28:06;100714.06;;;4.70;100.00
5966;BME280;3009;43.224;27.976;2024-01-27T08:30:37;100706.03;;;4.65;100.00
5966;BME280;3009;43.224;27.976;2024-01-27T08:33:06;100711.34;;;4.65;100.00
5966;BME280;3009;43.224;27.976;2024-01-27T08:35:34;100710.66;;;4.32;100.00
5966;BME280;3009;43.224;27.976;2024-01-27T08:38:09;100708.50;;;4.18;100.00
5966;BME280;3009;43.224;27.976;2024-01-27T08:40:37;100711.94;;;4.24;100.00
5966;BME280;3009;43.224;27.976;2024-01-27T08:43:06;100707.22;;;4.31;100.00
5966;BME280;3009;43.224;27.976;2024-01-27T08:45:35;100715.78;;;4.43;100.00
5966;BME280;3009;43.224;27.976;2024-01-27T08:48:06;100720.91;;;4.60;100.00
5966;BME280;3009;43.224;27.976;2024-01-27T08:50:35;100719.00;;;4.51;100.00
5966;BME280;3009;43.224;27.976;2024-01-27T08:53:04;100724.44;;;4.29;100.00
5966;BME280;3009;43.224;27.976;2024-01-27T08:55:32;100720.56;;;4.47;100.00
5966;BME280;3009;43.224;27.976;2024-01-27T08:58:01;100720.41;;;4.64;100.00
5966;BME280;3009;43.224;27.976;2024-01-27T09:00:29;100722.81;;;4.75;100.00
5966;BME280;3009;43.224;27.976;2024-01-27T09:02:58;100727.34;;;4.80;100.00
5966;BME280;3009;43.224;27.976;2024-01-27T09:05:28;100721.28;;;4.85;100.00
5966;BME280;3009;43.224;27.976;2024-01-27T09:07:56;100716.53;;;4.97;100.00
5966;BME280;3009;43.224;27.976;2024-01-27T09:10:24;100709.91;;;5.10;100.00
5966;BME280;3009;43.224;27.976;2024-01-27T09:12:53;100703.03;;;5.24;100.00
5966;BME280;3009;43.224;27.976;2024-01-27T09:15:21;100703.03;;;5.35;100.00
5966;BME280;3009;43.224;27.976;2024-01-27T09:17:50;100702.22;;;5.49;100.00
5966;BME280;3009;43.224;27.976;2024-01-27T09:20:19;100695.06;;;5.50;100.00
5966;BME280;3009;43.224;27.976;2024-01-27T09:22:52;100691.09;;;5.53;100.00
5966;BME280;3009;43.224;27.976;2024-01-27T09:25:20;100695.84;;;5.50;100.00
5966;BME280;3009;43.224;27.976;2024-01-27T09:27:49;100692.16;;;5.52;100.00
5966;BME280;3009;43.224;27.976;2024-01-27T09:30:18;100694.25;;;5.60;100.00
5966;BME280;3009;43.224;27.976;2024-01-27T09:32:46;100688.69;;;5.66;100.00
5966;BME280;3009;43.224;27.976;2024-01-27T09:35:18;100687.63;;;5.73;100.00
5966;BME280;3009;43.224;27.976;2024-01-27T09:37:47;100706.22;;;5.52;100.00
5966;BME280;3009;43.224;27.976;2024-01-27T09:40:20;100694.78;;;5.26;100.00
5966;BME280;3009;43.224;27.976;2024-01-27T09:42:51;100707.56;;;5.65;99.67
5966;BME280;3009;43.224;27.976;2024-01-27T09:45:21;100702.25;;;5.75;100.00
5966;BME280;3009;43.224;27.976;2024-01-27T09:47:51;100715.53;;;5.70;100.00
5966;BME280;3009;43.224;27.976;2024-01-27T09:50:21;100714.47;;;5.76;100.00
5966;BME280;3009;43.224;27.976;2024-01-27T09:52:50;100717.94;;;5.82;100.00
5966;BME280;3009;43.224;27.976;2024-01-27T09:55:20;100711.56;;;5.98;100.00
5966;BME280;3009;43.224;27.976;2024-01-27T09:57:48;100700.63;;;6.05;100.00
5966;BME280;3009;43.224;27.976;2024-01-27T10:00:18;100706.75;;;6.21;100.00
5966;BME280;3009;43.224;27.976;2024-01-27T10:02:48;100707.00;;;6.30;100.00
5966;BME280;3009;43.224;27.976;2024-01-27T10:05:18;100699.00;;;6.14;100.00
5966;BME280;3009;43.224;27.976;2024-01-27T10:07:47;100702.19;;;6.27;100.00
5966;BME280;3009;43.224;27.976;2024-01-27T10:10:16;100688.94;;;5.80;98.83
5966;BME280;3009;43.224;27.976;2024-01-27T10:12:47;100704.06;;;6.16;98.05
5966;BME280;3009;43.224;27.976;2024-01-27T10:15:20;100702.50;;;6.05;98.83
5966;BME280;3009;43.224;27.976;2024-01-27T10:17:49;100696.63;;;6.13;97.65
5966;BME280;3009;43.224;27.976;2024-01-27T10:20:18;100699.78;;;6.30;98.07
5966;BME280;3009;43.224;27.976;2024-01-27T10:22:46;100693.59;;;6.50;97.01
5966;BME280;3009;43.224;27.976;2024-01-27T10:25:15;100699.16;;;6.59;96.50
5966;BME280;3009;43.224;27.976;2024-01-27T10:27:48;100693.94;;;6.23;98.70
5966;BME280;3009;43.224;27.976;2024-01-27T10:30:17;100700.72;;;6.65;96.92
5966;BME280;3009;43.224;27.976;2024-01-27T10:32:55;100692.69;;;6.76;95.90
5966;BME280;3009;43.224;27.976;2024-01-27T10:35:24;100693.75;;;6.74;95.91
5966;BME280;3009;43.224;27.976;2024-01-27T10:37:53;100692.97;;;6.74;96.82
5966;BME280;3009;43.224;27.976;2024-01-27T10:40:26;100685.16;;;6.88;95.63
5966;BME280;3009;43.224;27.976;2024-01-27T10:43:05;100686.41;;;6.46;96.86
5966;BME280;3009;43.224;27.976;2024-01-27T10:45:37;100688.44;;;6.69;96.76
5966;BME280;3009;43.224;27.976;2024-01-27T10:48:08;100676.19;;;6.73;97.34
5966;BME280;3009;43.224;27.976;2024-01-27T10:50:39;100681.38;;;6.34;98.42
5966;BME280;3009;43.224;27.976;2024-01-27T10:53:21;100682.81;;;6.00;100.00
5966;BME280;3009;43.224;27.976;2024-01-27T10:55:53;100688.94;;;5.70;100.00
5966;BME280;3009;43.224;27.976;2024-01-27T10:58:24;100689.47;;;5.88;100.00
5966;BME280;3009;43.224;27.976;2024-01-27T11:00:53;100685.44;;;6.16;100.00
5966;BME280;3009;43.224;27.976;2024-01-27T11:03:25;100680.91;;;6.21;100.00
5966;BME280;3009;43.224;27.976;2024-01-27T11:05:57;100674.28;;;5.88;99.14
5966;BME280;3009;43.224;27.976;2024-01-27T11:08:27;100680.91;;;6.16;96.28
5966;BME280;3009;43.224;27.976;2024-01-27T11:10:57;100687.81;;;6.17;93.84
5966;BME280;3009;43.224;27.976;2024-01-27T11:13:28;100688.09;;;6.21;93.62
5966;BME280;3009;43.224;27.976;2024-01-27T11:15:58;100679.06;;;6.22;94.86
5966;BME280;3009;43.224;27.976;2024-01-27T11:18:26;100679.91;;;5.97;94.72
5966;BME280;3009;43.224;27.976;2024-01-27T11:20:58;100675.09;;;6.04;96.31
5966;BME280;3009;43.224;27.976;2024-01-27T11:23:34;100665.78;;;5.96;95.06
5966;BME280;3009;43.224;27.976;2024-01-27T11:26:04;100670.53;;;6.10;95.29
5966;BME280;3009;43.224;27.976;2024-01-27T11:28:35;100678.25;;;6.11;95.86
5966;BME280;3009;43.224;27.976;2024-01-27T11:31:05;100673.50;;;6.03;96.77
5966;BME280;3009;43.224;27.976;2024-01-27T11:33:39;100674.06;;;5.54;100.00
5966;BME280;3009;43.224;27.976;2024-01-27T11:36:18;100669.81;;;5.68;100.00
5966;BME280;3009;43.224;27.976;2024-01-27T11:38:48;100670.06;;;5.72;100.00
5966;BME280;3009;43.224;27.976;2024-01-27T11:41:26;100675.13;;;5.68;100.00
5966;BME280;3009;43.224;27.976;2024-01-27T11:43:57;100674.34;;;5.57;100.00
5966;BME280;3009;43.224;27.976;2024-01-27T11:46:26;100679.13;;;5.50;100.00
5966;BME280;3009;43.224;27.976;2024-01-27T11:48:55;100675.13;;;5.27;100.00
5966;BME280;3009;43.224;27.976;2024-01-27T11:51:24;100677.53;;;5.44;100.00
5966;BME280;3009;43.224;27.976;2024-01-27T11:53:53;100674.59;;;5.30;100.00
5966;BME280;3009;43.224;27.976;2024-01-27T11:56:21;100683.88;;;5.22;100.00
5966;BME280;3009;43.224;27.976;2024-01-27T11:58:51;100677.22;;;5.25;100.00
5966;BME280;3009;43.224;27.976;2024-01-27T12:01:22;100694.75;;;5.21;100.00
5966;BME280;3009;43.224;27.976;2024-01-27T12:03:50;100692.94;;;5.21;100.00
5966;BME280;3009;43.224;27.976;2024-01-27T12:06:19;100690.28;;;5.37;100.00
5966;BME280;3009;43.224;27.976;2024-01-27T12:08:48;100694.78;;;5.26;100.00
5966;BME280;3009;43.224;27.976;2024-01-27T12:11:17;100695.31;;;5.28;100.00
5966;BME280;3009;43.224;27.976;2024-01-27T12:13:51;100683.59;;;5.24;100.00
5966;BME280;3009;43.224;27.976;2024-01-27T12:16:24;100690.25;;;5.26;100.00
5966;BME280;3009;43.224;27.976;2024-01-27T12:18:53;100698.75;;;5.18;100.00
5966;BME280;3009;43.224;27.976;2024-01-27T12:21:23;100701.53;;;4.65;100.00
5966;BME280;3009;43.224;27.976;2024-01-27T12:23:52;100709.06;;;4.94;100.00
5966;BME280;3009;43.224;27.976;2024-01-27T12:26:22;100717.00;;;4.84;100.00
5966;BME280;3009;43.224;27.976;2024-01-27T12:28:51;100713.88;;;5.02;100.00
5966;BME280;3009;43.224;27.976;2024-01-27T12:31:19;100716.00;;;5.00;100.00
5966;BME280;3009;43.224;27.976;2024-01-27T12:33:50;100716.50;;;4.92;100.00
5966;BME280;3009;43.224;27.976;2024-01-27T12:36:20;100714.13;;;4.95;100.00
5966;BME280;3009;43.224;27.976;2024-01-27T12:38:57;100715.75;;;5.02;100.00
5966;BME280;3009;43.224;27.976;2024-01-27T12:41:27;100712.19;;;4.75;100.00
5966;BME280;3009;43.224;27.976;2024-01-27T12:43:56;100725.00;;;4.89;100.00
5966;BME280;3009;43.224;27.976;2024-01-27T12:46:25;100718.63;;;4.85;100.00
5966;BME280;3009;43.224;27.976;2024-01-27T12:48:55;100727.50;;;4.53;100.00
5966;BME280;3009;43.224;27.976;2024-01-27T12:51:23;100734.16;;;4.55;100.00
5966;BME280;3009;43.224;27.976;2024-01-27T12:53:52;100739.72;;;4.49;100.00
5966;BME280;3009;43.224;27.976;2024-01-27T12:56:21;100749.69;;;4.26;100.00
5966;BME280;3009;43.224;27.976;2024-01-27T12:58:49;100747.28;;;4.30;100.00
5966;BME280;3009;43.224;27.976;2024-01-27T13:01:18;100748.97;;;4.41;100.00
5966;BME280;3009;43.224;27.976;2024-01-27T13:03:46;100758.06;;;4.55;100.00
5966;BME280;3009;43.224;27.976;2024-01-27T13:06:16;100758.81;;;4.46;100.00
5966;BME280;3009;43.224;27.976;2024-01-27T13:08:46;100759.16;;;4.59;100.00
5966;BME280;3009;43.224;27.976;2024-01-27T13:11:14;100765.69;;;4.41;100.00
5966;BME280;3009;43.224;27.976;2024-01-27T13:13:43;100774.53;;;4.57;100.00